sensor_id;sensor_type;location;lat;lon;timestamp;P1;durP1;ratioP1;P2;durP2;ratioP2
32038;SDS011;18549;42.286;22.688;2023-12-29T00:01:32;134.13;;;71.23;;
32038;SDS011;18549;42.286;22.688;2023-12-29T00:04:13;134.73;;;70.47;;
32038;SDS011;18549;42.286;22.688;2023-12-29T00:06:43;117.73;;;67.60;;
32038;SDS011;18549;42.286;22.688;2023-12-29T00:09:10;140.90;;;74.57;;
32038;SDS011;18549;42.286;22.688;2023-12-29T00:11:37;149.40;;;82.83;;
32038;SDS011;18549;42.286;22.688;2023-12-29T00:14:04;155.70;;;82.63;;
32038;SDS011;18549;42.286;22.688;2023-12-29T00:16:31;142.47;;;79.07;;
32038;SDS011;18549;42.286;22.688;2023-12-29T00:19:00;147.67;;;76.53;;
32038;SDS011;18549;42.286;22.688;2023-12-29T00:21:28;103.33;;;60.10;;
32038;SDS011;18549;42.286;22.688;2023-12-29T00:23:56;112.67;;;62.53;;
32038;SDS011;18549;42.286;22.688;2023-12-29T00:26:23;98.60;;;58.10;;
32038;SDS011;18549;42.286;22.688;2023-12-29T00:28:50;102.30;;;56.67;;
32038;SDS011;18549;42.286;22.688;2023-12-29T00:31:17;105.80;;;60.20;;
32038;SDS011;18549;42.286;22.688;2023-12-29T00:33:44;97.73;;;53.87;;
32038;SDS011;18549;42.286;22.688;2023-12-29T00:36:14;88.37;;;52.43;;
32038;SDS011;18549;42.286;22.688;2023-12-29T00:38:41;90.67;;;53.73;;
32038;SDS011;18549;42.286;22.688;2023-12-29T00:41:11;79.93;;;48.57;;
32038;SDS011;18549;42.286;22.688;2023-12-29T00:43:39;72.00;;;44.23;;
32038;SDS011;18549;42.286;22.688;2023-12-29T00:46:14;73.53;;;44.80;;
32038;SDS011;18549;42.286;22.688;2023-12-29T00:48:43;77.17;;;46.10;;
32038;SDS011;18549;42.286;22.688;2023-12-29T00:51:11;76.70;;;45.67;;
32038;SDS011;18549;42.286;22.688;2023-12-29T00:53:38;95.83;;;53.47;;
32038;SDS011;18549;42.286;22.688;2023-12-29T00:56:10;139.80;;;81.03;;
32038;SDS011;18549;42.286;22.688;2023-12-29T00:58:38;148.17;;;79.20;;
32038;SDS011;18549;42.286;22.688;2023-12-29T01:01:05;139.33;;;82.33;;
32038;SDS011;18549;42.286;22.688;2023-12-29T01:06:20;160.43;;;86.30;;
32038;SDS011;18549;42.286;22.688;2023-12-29T01:09:02;165.30;;;86.33;;
32038;SDS011;18549;42.286;22.688;2023-12-29T01:11:34;173.00;;;90.23;;
32038;SDS011;18549;42.286;22.688;2023-12-29T01:14:02;164.27;;;85.37;;
32038;SDS011;18549;42.286;22.688;2023-12-29T01:16:32;148.70;;;82.57;;
32038;SDS011;18549;42.286;22.688;2023-12-29T01:19:08;166.50;;;90.80;;
32038;SDS011;18549;42.286;22.688;2023-12-29T01:21:46;182.30;;;106.97;;
32038;SDS011;18549;42.286;22.688;2023-12-29T01:24:15;221.67;;;118.20;;
32038;SDS011;18549;42.286;22.688;2023-12-29T01:26:43;247.37;;;133.37;;
32038;SDS011;18549;42.286;22.688;2023-12-29T01:29:13;235.50;;;131.53;;
32038;SDS011;18549;42.286;22.688;2023-12-29T01:31:40;276.13;;;141.30;;
32038;SDS011;18549;42.286;22.688;2023-12-29T01:34:07;290.87;;;141.90;;
32038;SDS011;18549;42.286;22.688;2023-12-29T01:36:34;287.20;;;143.97;;
32038;SDS011;18549;42.286;22.688;2023-12-29T01:39:04;266.70;;;139.10;;
32038;SDS011;18549;42.286;22.688;2023-12-29T01:41:33;398.03;;;191.10;;
32038;SDS011;18549;42.286;22.688;2023-12-29T01:46:53;145.73;;;82.10;;
32038;SDS011;18549;42.286;22.688;2023-12-29T01:49:30;126.77;;;72.00;;
32038;SDS011;18549;42.286;22.688;2023-12-29T01:52:09;103.03;;;64.40;;
32038;SDS011;18549;42.286;22.688;2023-12-29T01:54:43;172.33;;;90.90;;
32038;SDS011;18549;42.286;22.688;2023-12-29T01:57:19;202.87;;;105.73;;
32038;SDS011;18549;42.286;22.688;2023-12-29T01:59:48;222.33;;;110.30;;
32038;SDS011;18549;42.286;22.688;2023-12-29T02:02:15;203.90;;;100.53;;
32038;SDS011;18549;42.286;22.688;2023-12-29T02:04:42;201.03;;;102.77;;
32038;SDS011;18549;42.286;22.688;2023-12-29T02:07:09;190.73;;;102.00;;
32038;SDS011;18549;42.286;22.688;2023-12-29T02:09:36;178.93;;;97.00;;
32038;SDS011;18549;42.286;22.688;2023-12-29T02:12:04;182.13;;;98.60;;
32038;SDS011;18549;42.286;22.688;2023-12-29T02:14:31;177.00;;;95.03;;
32038;SDS011;18549;42.286;22.688;2023-12-29T02:17:22;172.30;;;93.90;;
32038;SDS011;18549;42.286;22.688;2023-12-29T02:20:00;162.93;;;88.97;;
32038;SDS011;18549;42.286;22.688;2023-12-29T02:22:30;130.87;;;71.20;;
32038;SDS011;18549;42.286;22.688;2023-12-29T02:25:10;119.10;;;66.33;;
32038;SDS011;18549;42.286;22.688;2023-12-29T02:27:41;144.70;;;79.33;;
32038;SDS011;18549;42.286;22.688;2023-12-29T02:30:14;149.23;;;81.00;;
32038;SDS011;18549;42.286;22.688;2023-12-29T02:32:45;149.70;;;79.30;;
32038;SDS011;18549;42.286;22.688;2023-12-29T02:35:14;141.30;;;75.47;;
32038;SDS011;18549;42.286;22.688;2023-12-29T02:37:43;142.00;;;79.80;;
32038;SDS011;18549;42.286;22.688;2023-12-29T02:40:12;129.23;;;78.60;;
32038;SDS011;18549;42.286;22.688;2023-12-29T02:42:44;125.70;;;78.03;;
32038;SDS011;18549;42.286;22.688;2023-12-29T02:45:14;140.57;;;76.30;;
32038;SDS011;18549;42.286;22.688;2023-12-29T02:47:42;138.07;;;78.33;;
32038;SDS011;18549;42.286;22.688;2023-12-29T02:50:17;128.30;;;75.47;;
32038;SDS011;18549;42.286;22.688;2023-12-29T02:52:47;146.53;;;76.80;;
32038;SDS011;18549;42.286;22.688;2023-12-29T02:55:17;146.93;;;79.07;;
32038;SDS011;18549;42.286;22.688;2023-12-29T02:57:46;145.67;;;79.00;;
32038;SDS011;18549;42.286;22.688;2023-12-29T03:00:13;139.17;;;77.97;;
32038;SDS011;18549;42.286;22.688;2023-12-29T03:02:40;131.00;;;72.43;;
32038;SDS011;18549;42.286;22.688;2023-12-29T03:05:07;130.07;;;71.30;;
32038;SDS011;18549;42.286;22.688;2023-12-29T03:07:34;112.73;;;65.43;;
32038;SDS011;18549;42.286;22.688;2023-12-29T03:10:01;103.97;;;60.93;;
32038;SDS011;18549;42.286;22.688;2023-12-29T03:12:29;151.83;;;77.13;;
32038;SDS011;18549;42.286;22.688;2023-12-29T03:14:56;153.03;;;75.53;;
32038;SDS011;18549;42.286;22.688;2023-12-29T03:17:23;145.67;;;77.43;;
32038;SDS011;18549;42.286;22.688;2023-12-29T03:19:50;138.03;;;78.27;;
32038;SDS011;18549;42.286;22.688;2023-12-29T03:22:16;133.43;;;71.73;;
32038;SDS011;18549;42.286;22.688;2023-12-29T03:24:43;116.90;;;69.00;;
32038;SDS011;18549;42.286;22.688;2023-12-29T03:27:10;120.33;;;67.60;;
32038;SDS011;18549;42.286;22.688;2023-12-29T03:29:38;157.37;;;81.10;;
32038;SDS011;18549;42.286;22.688;2023-12-29T03:32:10;192.20;;;93.30;;
32038;SDS011;18549;42.286;22.688;2023-12-29T03:34:36;186.20;;;99.00;;
32038;SDS011;18549;42.286;22.688;2023-12-29T03:37:09;178.57;;;92.20;;
32038;SDS011;18549;42.286;22.688;2023-12-29T03:39:53;155.67;;;83.23;;
32038;SDS011;18549;42.286;22.688;2023-12-29T03:42:23;181.93;;;94.83;;
32038;SDS011;18549;42.286;22.688;2023-12-29T03:44:53;201.30;;;96.50;;
32038;SDS011;18549;42.286;22.688;2023-12-29T03:47:23;202.03;;;98.37;;
32038;SDS011;18549;42.286;22.688;2023-12-29T03:49:49;183.27;;;91.20;;
32038;SDS011;18549;42.286;22.688;2023-12-29T03:52:16;226.37;;;103.67;;
32038;SDS011;18549;42.286;22.688;2023-12-29T03:54:43;198.47;;;97.73;;
32038;SDS011;18549;42.286;22.688;2023-12-29T03:57:11;164.30;;;85.17;;
32038;SDS011;18549;42.286;22.688;2023-12-29T03:59:38;169.83;;;84.17;;
32038;SDS011;18549;42.286;22.688;2023-12-29T04:02:08;139.23;;;71.63;;
32038;SDS011;18549;42.286;22.688;2023-12-29T04:04:36;137.93;;;73.60;;
32038;SDS011;18549;42.286;22.688;2023-12-29T04:07:05;141.07;;;76.37;;
32038;SDS011;18549;42.286;22.688;2023-12-29T04:09:36;128.57;;;71.23;;
32038;SDS011;18549;42.286;22.688;2023-12-29T04:12:06;137.73;;;70.13;;
32038;SDS011;18549;42.286;22.688;2023-12-29T04:14:36;133.93;;;72.70;;
32038;SDS011;18549;42.286;22.688;2023-12-29T04:17:03;117.20;;;68.23;;
32038;SDS011;18549;42.286;22.688;2023-12-29T04:19:51;119.27;;;66.73;;
32038;SDS011;18549;42.286;22.688;2023-12-29T04:22:18;121.63;;;70.13;;
32038;SDS011;18549;42.286;22.688;2023-12-29T04:24:45;121.00;;;65.83;;
32038;SDS011;18549;42.286;22.688;2023-12-29T04:27:22;145.43;;;73.90;;
32038;SDS011;18549;42.286;22.688;2023-12-29T04:29:51;158.27;;;79.53;;
32038;SDS011;18549;42.286;22.688;2023-12-29T04:32:19;152.07;;;80.47;;
32038;SDS011;18549;42.286;22.688;2023-12-29T04:34:46;163.33;;;82.60;;
32038;SDS011;18549;42.286;22.688;2023-12-29T04:37:19;149.80;;;71.93;;
32038;SDS011;18549;42.286;22.688;2023-12-29T04:39:46;128.23;;;66.83;;
32038;SDS011;18549;42.286;22.688;2023-12-29T04:42:16;163.13;;;78.60;;
32038;SDS011;18549;42.286;22.688;2023-12-29T04:44:45;136.43;;;67.97;;
32038;SDS011;18549;42.286;22.688;2023-12-29T04:47:12;155.57;;;81.07;;
32038;SDS011;18549;42.286;22.688;2023-12-29T04:49:42;162.00;;;84.23;;
32038;SDS011;18549;42.286;22.688;2023-12-29T04:52:09;167.70;;;86.57;;
32038;SDS011;18549;42.286;22.688;2023-12-29T04:54:37;141.93;;;77.73;;
32038;SDS011;18549;42.286;22.688;2023-12-29T04:57:10;123.90;;;69.93;;
32038;SDS011;18549;42.286;22.688;2023-12-29T04:59:38;138.70;;;73.70;;
32038;SDS011;18549;42.286;22.688;2023-12-29T05:02:05;151.40;;;75.70;;
32038;SDS011;18549;42.286;22.688;2023-12-29T05:04:32;158.67;;;80.77;;
32038;SDS011;18549;42.286;22.688;2023-12-29T05:06:59;135.83;;;71.57;;
32038;SDS011;18549;42.286;22.688;2023-12-29T05:09:25;134.97;;;72.27;;
32038;SDS011;18549;42.286;22.688;2023-12-29T05:11:54;148.37;;;72.40;;
32038;SDS011;18549;42.286;22.688;2023-12-29T05:14:29;126.20;;;64.73;;
32038;SDS011;18549;42.286;22.688;2023-12-29T05:16:57;116.93;;;65.67;;
32038;SDS011;18549;42.286;22.688;2023-12-29T05:19:27;133.90;;;66.73;;
32038;SDS011;18549;42.286;22.688;2023-12-29T05:21:57;108.57;;;58.43;;
32038;SDS011;18549;42.286;22.688;2023-12-29T05:24:24;103.87;;;61.80;;
32038;SDS011;18549;42.286;22.688;2023-12-29T05:26:50;106.07;;;58.50;;
32038;SDS011;18549;42.286;22.688;2023-12-29T05:29:18;120.07;;;62.13;;
32038;SDS011;18549;42.286;22.688;2023-12-29T05:31:45;113.83;;;59.33;;
32038;SDS011;18549;42.286;22.688;2023-12-29T05:34:19;124.60;;;61.57;;
32038;SDS011;18549;42.286;22.688;2023-12-29T05:36:54;124.90;;;64.77;;
32038;SDS011;18549;42.286;22.688;2023-12-29T05:39:24;128.27;;;64.37;;
32038;SDS011;18549;42.286;22.688;2023-12-29T05:41:51;142.17;;;69.10;;
32038;SDS011;18549;42.286;22.688;2023-12-29T05:44:19;132.67;;;70.47;;
32038;SDS011;18549;42.286;22.688;2023-12-29T05:46:46;157.77;;;74.47;;
32038;SDS011;18549;42.286;22.688;2023-12-29T05:49:13;141.03;;;72.33;;
32038;SDS011;18549;42.286;22.688;2023-12-29T05:51:40;162.43;;;82.43;;
32038;SDS011;18549;42.286;22.688;2023-12-29T05:54:07;169.23;;;86.87;;
32038;SDS011;18549;42.286;22.688;2023-12-29T05:56:33;197.63;;;93.77;;
32038;SDS011;18549;42.286;22.688;2023-12-29T05:59:01;188.70;;;92.27;;
32038;SDS011;18549;42.286;22.688;2023-12-29T06:01:43;210.53;;;101.47;;
32038;SDS011;18549;42.286;22.688;2023-12-29T06:04:12;174.93;;;90.93;;
32038;SDS011;18549;42.286;22.688;2023-12-29T06:06:39;165.47;;;83.23;;
32038;SDS011;18549;42.286;22.688;2023-12-29T06:09:08;146.30;;;81.30;;
32038;SDS011;18549;42.286;22.688;2023-12-29T06:11:37;198.50;;;101.23;;
32038;SDS011;18549;42.286;22.688;2023-12-29T06:14:13;173.83;;;93.37;;
32038;SDS011;18549;42.286;22.688;2023-12-29T06:16:57;155.47;;;80.53;;
32038;SDS011;18549;42.286;22.688;2023-12-29T06:19:28;194.03;;;91.37;;
32038;SDS011;18549;42.286;22.688;2023-12-29T06:21:57;220.87;;;101.30;;
32038;SDS011;18549;42.286;22.688;2023-12-29T06:24:25;194.43;;;98.93;;
32038;SDS011;18549;42.286;22.688;2023-12-29T06:26:54;209.77;;;104.03;;
32038;SDS011;18549;42.286;22.688;2023-12-29T06:29:21;182.97;;;89.73;;
32038;SDS011;18549;42.286;22.688;2023-12-29T06:31:49;140.37;;;76.03;;
32038;SDS011;18549;42.286;22.688;2023-12-29T06:34:16;129.13;;;71.33;;
32038;SDS011;18549;42.286;22.688;2023-12-29T06:36:42;156.27;;;80.60;;
32038;SDS011;18549;42.286;22.688;2023-12-29T06:39:09;144.53;;;76.10;;
32038;SDS011;18549;42.286;22.688;2023-12-29T06:41:36;157.20;;;78.53;;
32038;SDS011;18549;42.286;22.688;2023-12-29T06:44:03;173.10;;;86.80;;
32038;SDS011;18549;42.286;22.688;2023-12-29T06:46:30;183.53;;;91.20;;
32038;SDS011;18549;42.286;22.688;2023-12-29T06:48:58;195.77;;;92.23;;
32038;SDS011;18549;42.286;22.688;2023-12-29T06:51:25;196.77;;;94.63;;
32038;SDS011;18549;42.286;22.688;2023-12-29T06:53:52;175.90;;;90.27;;
32038;SDS011;18549;42.286;22.688;2023-12-29T06:56:18;194.63;;;96.63;;
32038;SDS011;18549;42.286;22.688;2023-12-29T06:58:45;199.67;;;99.13;;
32038;SDS011;18549;42.286;22.688;2023-12-29T07:01:12;211.17;;;104.00;;
32038;SDS011;18549;42.286;22.688;2023-12-29T07:03:39;201.30;;;109.23;;
32038;SDS011;18549;42.286;22.688;2023-12-29T07:06:07;222.20;;;114.10;;
32038;SDS011;18549;42.286;22.688;2023-12-29T07:08:34;188.10;;;106.77;;
32038;SDS011;18549;42.286;22.688;2023-12-29T07:11:01;187.23;;;100.50;;
32038;SDS011;18549;42.286;22.688;2023-12-29T07:13:28;209.30;;;118.13;;
32038;SDS011;18549;42.286;22.688;2023-12-29T07:15:55;219.07;;;114.27;;
32038;SDS011;18549;42.286;22.688;2023-12-29T07:18:22;217.80;;;116.37;;
32038;SDS011;18549;42.286;22.688;2023-12-29T07:20:49;238.37;;;123.23;;
32038;SDS011;18549;42.286;22.688;2023-12-29T07:23:17;213.67;;;115.57;;
32038;SDS011;18549;42.286;22.688;2023-12-29T07:25:44;228.23;;;123.57;;
32038;SDS011;18549;42.286;22.688;2023-12-29T07:28:10;249.37;;;139.00;;
32038;SDS011;18549;42.286;22.688;2023-12-29T07:30:37;246.00;;;136.90;;
32038;SDS011;18549;42.286;22.688;2023-12-29T07:33:04;235.33;;;125.63;;
32038;SDS011;18549;42.286;22.688;2023-12-29T07:35:31;221.73;;;115.07;;
32038;SDS011;18549;42.286;22.688;2023-12-29T07:37:58;205.67;;;110.27;;
32038;SDS011;18549;42.286;22.688;2023-12-29T07:40:27;217.87;;;112.17;;
32038;SDS011;18549;42.286;22.688;2023-12-29T07:42:54;232.97;;;122.37;;
32038;SDS011;18549;42.286;22.688;2023-12-29T07:45:20;249.57;;;131.33;;
32038;SDS011;18549;42.286;22.688;2023-12-29T07:47:47;251.80;;;136.13;;
32038;SDS011;18549;42.286;22.688;2023-12-29T07:50:14;233.63;;;130.50;;
32038;SDS011;18549;42.286;22.688;2023-12-29T07:52:42;245.43;;;135.00;;
32038;SDS011;18549;42.286;22.688;2023-12-29T07:55:08;247.93;;;136.60;;
32038;SDS011;18549;42.286;22.688;2023-12-29T07:57:37;232.30;;;130.90;;
32038;SDS011;18549;42.286;22.688;2023-12-29T08:00:04;236.47;;;128.57;;
32038;SDS011;18549;42.286;22.688;2023-12-29T08:02:31;233.67;;;134.67;;
32038;SDS011;18549;42.286;22.688;2023-12-29T08:04:59;256.93;;;141.80;;
32038;SDS011;18549;42.286;22.688;2023-12-29T08:07:25;279.27;;;152.03;;
32038;SDS011;18549;42.286;22.688;2023-12-29T08:09:52;256.40;;;149.23;;
32038;SDS011;18549;42.286;22.688;2023-12-29T08:12:19;243.17;;;138.87;;
32038;SDS011;18549;42.286;22.688;2023-12-29T08:14:47;266.27;;;148.97;;
32038;SDS011;18549;42.286;22.688;2023-12-29T08:17:13;280.93;;;156.73;;
32038;SDS011;18549;42.286;22.688;2023-12-29T08:19:40;289.67;;;160.00;;
32038;SDS011;18549;42.286;22.688;2023-12-29T08:22:07;283.17;;;151.87;;
32038;SDS011;18549;42.286;22.688;2023-12-29T08:24:34;261.67;;;140.63;;
32038;SDS011;18549;42.286;22.688;2023-12-29T08:27:00;247.97;;;131.10;;
32038;SDS011;18549;42.286;22.688;2023-12-29T08:29:28;186.27;;;104.83;;
32038;SDS011;18549;42.286;22.688;2023-12-29T08:31:57;171.40;;;89.40;;
32038;SDS011;18549;42.286;22.688;2023-12-29T08:34:23;178.07;;;88.77;;
32038;SDS011;18549;42.286;22.688;2023-12-29T08:36:50;110.10;;;58.77;;
32038;SDS011;18549;42.286;22.688;2023-12-29T08:39:18;95.23;;;54.70;;
32038;SDS011;18549;42.286;22.688;2023-12-29T08:41:44;103.47;;;60.23;;
32038;SDS011;18549;42.286;22.688;2023-12-29T08:44:14;106.47;;;60.10;;
32038;SDS011;18549;42.286;22.688;2023-12-29T08:46:41;120.93;;;64.20;;
32038;SDS011;18549;42.286;22.688;2023-12-29T08:49:09;107.37;;;58.83;;
32038;SDS011;18549;42.286;22.688;2023-12-29T08:51:36;134.07;;;75.57;;
32038;SDS011;18549;42.286;22.688;2023-12-29T08:54:03;117.13;;;63.60;;
32038;SDS011;18549;42.286;22.688;2023-12-29T08:56:29;111.07;;;63.53;;
32038;SDS011;18549;42.286;22.688;2023-12-29T08:58:56;119.20;;;67.10;;
32038;SDS011;18549;42.286;22.688;2023-12-29T09:01:23;117.80;;;64.00;;
32038;SDS011;18549;42.286;22.688;2023-12-29T09:03:50;100.43;;;61.57;;
32038;SDS011;18549;42.286;22.688;2023-12-29T09:06:18;111.30;;;63.93;;
32038;SDS011;18549;42.286;22.688;2023-12-29T09:08:45;116.57;;;65.63;;
32038;SDS011;18549;42.286;22.688;2023-12-29T09:11:12;122.77;;;67.70;;
32038;SDS011;18549;42.286;22.688;2023-12-29T09:13:39;116.40;;;67.07;;
32038;SDS011;18549;42.286;22.688;2023-12-29T09:16:06;128.43;;;72.80;;
32038;SDS011;18549;42.286;22.688;2023-12-29T09:18:32;145.20;;;76.77;;
32038;SDS011;18549;42.286;22.688;2023-12-29T09:20:59;109.93;;;66.10;;
32038;SDS011;18549;42.286;22.688;2023-12-29T09:23:27;127.03;;;72.40;;
32038;SDS011;18549;42.286;22.688;2023-12-29T09:25:54;109.87;;;70.67;;
32038;SDS011;18549;42.286;22.688;2023-12-29T09:28:20;146.53;;;79.13;;
32038;SDS011;18549;42.286;22.688;2023-12-29T09:30:47;138.70;;;79.23;;
32038;SDS011;18549;42.286;22.688;2023-12-29T09:33:14;150.63;;;85.77;;
32038;SDS011;18549;42.286;22.688;2023-12-29T09:35:41;143.57;;;81.20;;
32038;SDS011;18549;42.286;22.688;2023-12-29T09:38:07;112.43;;;70.40;;
32038;SDS011;18549;42.286;22.688;2023-12-29T09:40:36;112.03;;;61.47;;
32038;SDS011;18549;42.286;22.688;2023-12-29T09:43:03;105.37;;;61.73;;
32038;SDS011;18549;42.286;22.688;2023-12-29T09:45:30;97.77;;;57.50;;
32038;SDS011;18549;42.286;22.688;2023-12-29T09:48:00;80.80;;;48.77;;
32038;SDS011;18549;42.286;22.688;2023-12-29T09:50:29;74.53;;;46.40;;
32038;SDS011;18549;42.286;22.688;2023-12-29T09:52:55;76.00;;;43.83;;
32038;SDS011;18549;42.286;22.688;2023-12-29T09:55:24;71.87;;;44.10;;
32038;SDS011;18549;42.286;22.688;2023-12-29T09:57:52;80.77;;;51.20;;
32038;SDS011;18549;42.286;22.688;2023-12-29T10:00:20;100.63;;;60.97;;
32038;SDS011;18549;42.286;22.688;2023-12-29T10:02:47;78.87;;;49.27;;
32038;SDS011;18549;42.286;22.688;2023-12-29T10:05:17;77.10;;;47.20;;
32038;SDS011;18549;42.286;22.688;2023-12-29T10:07:44;75.03;;;44.03;;
32038;SDS011;18549;42.286;22.688;2023-12-29T10:10:14;81.93;;;46.67;;
32038;SDS011;18549;42.286;22.688;2023-12-29T10:12:41;88.97;;;43.30;;
32038;SDS011;18549;42.286;22.688;2023-12-29T10:15:12;83.23;;;49.57;;
32038;SDS011;18549;42.286;22.688;2023-12-29T10:17:46;75.37;;;45.97;;
32038;SDS011;18549;42.286;22.688;2023-12-29T10:20:21;71.10;;;43.37;;
32038;SDS011;18549;42.286;22.688;2023-12-29T10:22:54;72.70;;;42.83;;
32038;SDS011;18549;42.286;22.688;2023-12-29T10:25:31;73.43;;;41.23;;
32038;SDS011;18549;42.286;22.688;2023-12-29T10:27:58;80.27;;;47.20;;
32038;SDS011;18549;42.286;22.688;2023-12-29T10:30:26;63.23;;;39.87;;
32038;SDS011;18549;42.286;22.688;2023-12-29T10:32:53;94.37;;;51.97;;
32038;SDS011;18549;42.286;22.688;2023-12-29T10:35:20;99.67;;;52.20;;
32038;SDS011;18549;42.286;22.688;2023-12-29T10:37:47;82.90;;;47.07;;
32038;SDS011;18549;42.286;22.688;2023-12-29T10:40:17;75.40;;;44.40;;
32038;SDS011;18549;42.286;22.688;2023-12-29T10:42:53;71.67;;;36.00;;
32038;SDS011;18549;42.286;22.688;2023-12-29T10:45:22;61.27;;;35.47;;
32038;SDS011;18549;42.286;22.688;2023-12-29T10:47:51;56.87;;;33.03;;
32038;SDS011;18549;42.286;22.688;2023-12-29T10:50:19;59.40;;;39.43;;
32038;SDS011;18549;42.286;22.688;2023-12-29T10:52:46;62.77;;;39.13;;
32038;SDS011;18549;42.286;22.688;2023-12-29T10:55:12;82.73;;;43.57;;
32038;SDS011;18549;42.286;22.688;2023-12-29T10:57:39;73.77;;;42.33;;
32038;SDS011;18549;42.286;22.688;2023-12-29T11:00:07;78.33;;;43.43;;
32038;SDS011;18549;42.286;22.688;2023-12-29T11:02:37;75.00;;;43.77;;
32038;SDS011;18549;42.286;22.688;2023-12-29T11:05:06;68.93;;;41.93;;
32038;SDS011;18549;42.286;22.688;2023-12-29T11:07:35;74.27;;;40.70;;
32038;SDS011;18549;42.286;22.688;2023-12-29T11:10:02;77.87;;;47.93;;
32038;SDS011;18549;42.286;22.688;2023-12-29T11:12:33;75.70;;;48.80;;
32038;SDS011;18549;42.286;22.688;2023-12-29T11:15:02;74.37;;;46.77;;
32038;SDS011;18549;42.286;22.688;2023-12-29T11:17:30;83.17;;;47.50;;
32038;SDS011;18549;42.286;22.688;2023-12-29T11:19:58;82.77;;;51.83;;
32038;SDS011;18549;42.286;22.688;2023-12-29T11:22:29;78.73;;;46.70;;
32038;SDS011;18549;42.286;22.688;2023-12-29T11:24:56;73.63;;;46.80;;
32038;SDS011;18549;42.286;22.688;2023-12-29T11:27:27;88.30;;;53.93;;
32038;SDS011;18549;42.286;22.688;2023-12-29T11:29:56;82.20;;;50.90;;
32038;SDS011;18549;42.286;22.688;2023-12-29T11:32:24;81.83;;;48.40;;
32038;SDS011;18549;42.286;22.688;2023-12-29T11:35:02;89.90;;;49.30;;
32038;SDS011;18549;42.286;22.688;2023-12-29T11:37:47;80.47;;;44.33;;
32038;SDS011;18549;42.286;22.688;2023-12-29T11:40:26;63.10;;;39.63;;
32038;SDS011;18549;42.286;22.688;2023-12-29T11:43:00;62.67;;;38.10;;
32038;SDS011;18549;42.286;22.688;2023-12-29T11:45:33;73.43;;;39.83;;
32038;SDS011;18549;42.286;22.688;2023-12-29T11:48:01;74.20;;;39.40;;
32038;SDS011;18549;42.286;22.688;2023-12-29T11:50:29;66.70;;;40.70;;
32038;SDS011;18549;42.286;22.688;2023-12-29T11:52:58;77.93;;;43.17;;
32038;SDS011;18549;42.286;22.688;2023-12-29T11:55:29;72.13;;;43.23;;
32038;SDS011;18549;42.286;22.688;2023-12-29T11:57:57;63.47;;;41.87;;
32038;SDS011;18549;42.286;22.688;2023-12-29T12:00:40;66.47;;;41.47;;
32038;SDS011;18549;42.286;22.688;2023-12-29T12:03:13;70.87;;;50.17;;
32038;SDS011;18549;42.286;22.688;2023-12-29T12:05:44;61.37;;;43.23;;
32038;SDS011;18549;42.286;22.688;2023-12-29T12:08:12;71.73;;;46.50;;
32038;SDS011;18549;42.286;22.688;2023-12-29T12:10:53;76.53;;;41.37;;
32038;SDS011;18549;42.286;22.688;2023-12-29T12:19:11;71.17;;;46.60;;
32038;SDS011;18549;42.286;22.688;2023-12-29T12:21:38;75.50;;;47.90;;
32038;SDS011;18549;42.286;22.688;2023-12-29T12:24:07;84.60;;;52.20;;
32038;SDS011;18549;42.286;22.688;2023-12-29T12:26:34;84.37;;;48.60;;
32038;SDS011;18549;42.286;22.688;2023-12-29T12:29:01;86.37;;;48.00;;
32038;SDS011;18549;42.286;22.688;2023-12-29T12:31:28;105.57;;;64.43;;
32038;SDS011;18549;42.286;22.688;2023-12-29T12:33:55;102.43;;;63.93;;
32038;SDS011;18549;42.286;22.688;2023-12-29T12:36:23;114.97;;;64.60;;
32038;SDS011;18549;42.286;22.688;2023-12-29T12:38:50;176.80;;;115.00;;
32038;SDS011;18549;42.286;22.688;2023-12-29T12:41:19;86.73;;;52.77;;
32038;SDS011;18549;42.286;22.688;2023-12-29T12:43:49;70.47;;;45.53;;
32038;SDS011;18549;42.286;22.688;2023-12-29T12:46:22;67.00;;;41.67;;
32038;SDS011;18549;42.286;22.688;2023-12-29T12:48:50;70.70;;;51.00;;
32038;SDS011;18549;42.286;22.688;2023-12-29T12:51:18;70.07;;;40.03;;
32038;SDS011;18549;42.286;22.688;2023-12-29T12:53:46;73.67;;;38.60;;
32038;SDS011;18549;42.286;22.688;2023-12-29T12:56:14;71.80;;;40.40;;
32038;SDS011;18549;42.286;22.688;2023-12-29T12:58:44;57.33;;;39.93;;
32038;SDS011;18549;42.286;22.688;2023-12-29T13:01:11;67.60;;;41.47;;
32038;SDS011;18549;42.286;22.688;2023-12-29T13:03:38;73.93;;;46.30;;
32038;SDS011;18549;42.286;22.688;2023-12-29T13:06:05;63.77;;;33.73;;
32038;SDS011;18549;42.286;22.688;2023-12-29T13:08:33;60.90;;;35.60;;
32038;SDS011;18549;42.286;22.688;2023-12-29T13:11:00;38.90;;;26.83;;
32038;SDS011;18549;42.286;22.688;2023-12-29T13:13:35;78.57;;;39.60;;
32038;SDS011;18549;42.286;22.688;2023-12-29T13:16:04;73.67;;;44.67;;
32038;SDS011;18549;42.286;22.688;2023-12-29T13:18:31;72.10;;;45.00;;
32038;SDS011;18549;42.286;22.688;2023-12-29T13:20:58;74.67;;;42.33;;
32038;SDS011;18549;42.286;22.688;2023-12-29T13:23:27;250.90;;;152.10;;
32038;SDS011;18549;42.286;22.688;2023-12-29T13:25:54;95.53;;;61.33;;
32038;SDS011;18549;42.286;22.688;2023-12-29T13:28:24;97.20;;;54.07;;
32038;SDS011;18549;42.286;22.688;2023-12-29T13:30:53;72.43;;;45.17;;
32038;SDS011;18549;42.286;22.688;2023-12-29T13:33:25;67.80;;;37.67;;
32038;SDS011;18549;42.286;22.688;2023-12-29T13:35:57;37.77;;;23.53;;
32038;SDS011;18549;42.286;22.688;2023-12-29T13:38:33;27.43;;;16.93;;
32038;SDS011;18549;42.286;22.688;2023-12-29T13:41:04;33.77;;;20.50;;
32038;SDS011;18549;42.286;22.688;2023-12-29T13:43:35;45.87;;;25.77;;
32038;SDS011;18549;42.286;22.688;2023-12-29T13:46:07;168.10;;;79.97;;
32038;SDS011;18549;42.286;22.688;2023-12-29T13:48:36;74.30;;;43.77;;
32038;SDS011;18549;42.286;22.688;2023-12-29T13:51:04;74.43;;;46.10;;
32038;SDS011;18549;42.286;22.688;2023-12-29T13:53:31;99.73;;;52.73;;
32038;SDS011;18549;42.286;22.688;2023-12-29T13:56:05;104.73;;;58.20;;
32038;SDS011;18549;42.286;22.688;2023-12-29T13:58:33;90.07;;;55.43;;
32038;SDS011;18549;42.286;22.688;2023-12-29T14:01:00;109.00;;;60.47;;
32038;SDS011;18549;42.286;22.688;2023-12-29T14:03:27;234.37;;;100.87;;
32038;SDS011;18549;42.286;22.688;2023-12-29T14:06:02;130.77;;;71.07;;
32038;SDS011;18549;42.286;22.688;2023-12-29T14:08:31;111.10;;;64.77;;
32038;SDS011;18549;42.286;22.688;2023-12-29T14:11:00;101.43;;;62.50;;
32038;SDS011;18549;42.286;22.688;2023-12-29T14:13:27;112.33;;;64.67;;
32038;SDS011;18549;42.286;22.688;2023-12-29T14:15:57;105.17;;;58.87;;
32038;SDS011;18549;42.286;22.688;2023-12-29T14:18:29;104.83;;;59.47;;
32038;SDS011;18549;42.286;22.688;2023-12-29T14:21:21;115.53;;;68.07;;